sensor_id;sensor_type;location;lat;lon;timestamp;temperature;humidity
37974;DHT22;23796;51.458;7.000;2022-09-09T00:06:34;16.50;99.90
37974;DHT22;23796;51.458;7.000;2022-09-09T00:09:19;16.50;99.90
37974;DHT22;23796;51.458;7.000;2022-09-09T00:14:56;16.50;99.90
37974;DHT22;23796;51.458;7.000;2022-09-09T00:22:57;16.50;99.90
37974;DHT22;23796;51.458;7.000;2022-09-09T00:25:31;16.50;99.90
37974;DHT22;23796;51.458;7.000;2022-09-09T00:27:59;16.50;99.90
37974;DHT22;23796;51.458;7.000;2022-09-09T00:30:32;16.40;99.90
37974;DHT22;23796;51.458;7.000;2022-09-09T00:33:11;16.50;99.90
37974;DHT22;23796;51.458;7.000;2022-09-09T00:38:14;16.30;99.90
37974;DHT22;23796;51.458;7.000;2022-09-09T00:43:35;16.20;99.90
37974;DHT22;23796;51.458;7.000;2022-09-09T00:52:10;16.20;99.90
37974;DHT22;23796;51.458;7.000;2022-09-09T00:57:29;16.40;99.90
37974;DHT22;23796;51.458;7.000;2022-09-09T01:06:01;16.60;99.90
37974;DHT22;23796;51.458;7.000;2022-09-09T01:11:36;16.70;99.90
37974;DHT22;23796;51.458;7.000;2022-09-09T01:16:47;16.70;99.90
37974;DHT22;23796;51.458;7.000;2022-09-09T01:19:24;16.70;99.90
37974;DHT22;23796;51.458;7.000;2022-09-09T01:27:17;16.40;99.90
37974;DHT22;23796;51.458;7.000;2022-09-09T01:29:45;16.30;99.90
37974;DHT22;23796;51.458;7.000;2022-09-09T01:35:04;16.20;99.90
37974;DHT22;23796;51.458;7.000;2022-09-09T01:37:34;16.20;99.90
37974;DHT22;23796;51.458;7.000;2022-09-09T01:40:02;16.20;99.90
37974;DHT22;23796;51.458;7.000;2022-09-09T01:42:28;16.20;99.90
37974;DHT22;23796;51.458;7.000;2022-09-09T01:44:54;16.20;99.90
37974;DHT22;23796;51.458;7.000;2022-09-09T01:47:23;16.20;99.90
37974;DHT22;23796;51.458;7.000;2022-09-09T01:49:48;16.20;99.90
37974;DHT22;23796;51.458;7.000;2022-09-09T01:52:16;16.20;99.90
37974;DHT22;23796;51.458;7.000;2022-09-09T01:54:42;16.20;99.90
37974;DHT22;23796;51.458;7.000;2022-09-09T01:57:35;16.10;99.90
37974;DHT22;23796;51.458;7.000;2022-09-09T02:00:08;16.10;99.90
37974;DHT22;23796;51.458;7.000;2022-09-09T02:11:18;16.00;99.90
37974;DHT22;23796;51.458;7.000;2022-09-09T02:13:48;16.00;99.90
37974;DHT22;23796;51.458;7.000;2022-09-09T02:16:26;16.00;99.90
37974;DHT22;23796;51.458;7.000;2022-09-09T02:19:06;16.00;99.90
37974;DHT22;23796;51.458;7.000;2022-09-09T02:21:32;15.90;99.90
37974;DHT22;23796;51.458;7.000;2022-09-09T02:24:05;16.00;99.90
37974;DHT22;23796;51.458;7.000;2022-09-09T02:26:40;16.10;99.90
37974;DHT22;23796;51.458;7.000;2022-09-09T02:29:25;16.20;99.90
37974;DHT22;23796;51.458;7.000;2022-09-09T02:31:56;16.30;99.90
37974;DHT22;23796;51.458;7.000;2022-09-09T02:34:23;16.40;99.90
37974;DHT22;23796;51.458;7.000;2022-09-09T02:36:51;16.40;99.90
37974;DHT22;23796;51.458;7.000;2022-09-09T02:39:21;16.50;99.90
37974;DHT22;23796;51.458;7.000;2022-09-09T02:41:47;16.50;99.90
37974;DHT22;23796;51.458;7.000;2022-09-09T02:44:17;16.60;99.90
37974;DHT22;23796;51.458;7.000;2022-09-09T02:52:18;16.70;99.90
37974;DHT22;23796;51.458;7.000;2022-09-09T02:54:48;16.80;99.90
37974;DHT22;23796;51.458;7.000;2022-09-09T02:57:22;16.80;99.90
37974;DHT22;23796;51.458;7.000;2022-09-09T02:59:51;16.90;99.90
37974;DHT22;23796;51.458;7.000;2022-09-09T03:02:24;16.80;99.90
37974;DHT22;23796;51.458;7.000;2022-09-09T03:04:50;16.80;99.90
37974;DHT22;23796;51.458;7.000;2022-09-09T03:07:20;16.80;99.90
37974;DHT22;23796;51.458;7.000;2022-09-09T03:09:46;16.80;99.90
37974;DHT22;23796;51.458;7.000;2022-09-09T03:12:14;16.70;99.90
37974;DHT22;23796;51.458;7.000;2022-09-09T03:14:39;16.70;99.90
37974;DHT22;23796;51.458;7.000;2022-09-09T03:17:05;16.70;99.90
37974;DHT22;23796;51.458;7.000;2022-09-09T03:19:31;16.60;99.90
37974;DHT22;23796;51.458;7.000;2022-09-09T03:21:57;16.60;99.90
37974;DHT22;23796;51.458;7.000;2022-09-09T03:24:26;16.50;99.90
37974;DHT22;23796;51.458;7.000;2022-09-09T03:26:54;16.40;99.90
37974;DHT22;23796;51.458;7.000;2022-09-09T03:29:21;16.30;99.90
37974;DHT22;23796;51.458;7.000;2022-09-09T03:31:49;16.20;99.90
37974;DHT22;23796;51.458;7.000;2022-09-09T03:34:15;16.20;99.90
37974;DHT22;23796;51.458;7.000;2022-09-09T03:36:48;16.20;99.90
37974;DHT22;23796;51.458;7.000;2022-09-09T03:39:15;16.20;99.90
37974;DHT22;23796;51.458;7.000;2022-09-09T03:41:41;16.20;99.90
37974;DHT22;23796;51.458;7.000;2022-09-09T03:44:09;16.20;99.90
37974;DHT22;23796;51.458;7.000;2022-09-09T03:46:39;16.20;99.90
37974;DHT22;23796;51.458;7.000;2022-09-09T03:49:07;16.30;99.90
37974;DHT22;23796;51.458;7.000;2022-09-09T03:51:35;16.30;99.90
37974;DHT22;23796;51.458;7.000;2022-09-09T03:54:04;16.40;99.90
37974;DHT22;23796;51.458;7.000;2022-09-09T03:56:30;16.40;99.90
37974;DHT22;23796;51.458;7.000;2022-09-09T03:58:57;16.40;99.90
37974;DHT22;23796;51.458;7.000;2022-09-09T04:01:23;16.30;99.90
37974;DHT22;23796;51.458;7.000;2022-09-09T04:03:53;16.30;99.90
37974;DHT22;23796;51.458;7.000;2022-09-09T04:06:18;16.40;99.90
37974;DHT22;23796;51.458;7.000;2022-09-09T04:08:46;16.30;99.90
37974;DHT22;23796;51.458;7.000;2022-09-09T04:11:17;16.30;99.90
37974;DHT22;23796;51.458;7.000;2022-09-09T04:13:45;16.30;99.90
37974;DHT22;23796;51.458;7.000;2022-09-09T04:16:12;16.20;99.90
37974;DHT22;23796;51.458;7.000;2022-09-09T04:18:43;16.10;99.90
37974;DHT22;23796;51.458;7.000;2022-09-09T04:21:09;16.10;99.90
37974;DHT22;23796;51.458;7.000;2022-09-09T04:23:38;16.00;99.90
37974;DHT22;23796;51.458;7.000;2022-09-09T04:26:06;16.00;99.90
37974;DHT22;23796;51.458;7.000;2022-09-09T04:28:34;16.00;99.90
37974;DHT22;23796;51.458;7.000;2022-09-09T04:31:16;16.00;99.90
37974;DHT22;23796;51.458;7.000;2022-09-09T04:33:45;16.00;99.90
37974;DHT22;23796;51.458;7.000;2022-09-09T04:36:13;16.00;99.90
37974;DHT22;23796;51.458;7.000;2022-09-09T04:38:43;16.00;99.90
37974;DHT22;23796;51.458;7.000;2022-09-09T04:41:14;16.00;99.90
37974;DHT22;23796;51.458;7.000;2022-09-09T04:43:41;16.10;99.90
37974;DHT22;23796;51.458;7.000;2022-09-09T04:46:07;16.10;99.90
37974;DHT22;23796;51.458;7.000;2022-09-09T04:48:36;16.20;99.90
37974;DHT22;23796;51.458;7.000;2022-09-09T04:51:10;16.20;99.90
37974;DHT22;23796;51.458;7.000;2022-09-09T04:53:36;16.30;99.90
37974;DHT22;23796;51.458;7.000;2022-09-09T04:56:09;16.30;99.90
37974;DHT22;23796;51.458;7.000;2022-09-09T04:58:40;16.40;99.90
37974;DHT22;23796;51.458;7.000;2022-09-09T05:01:23;16.40;99.90
37974;DHT22;23796;51.458;7.000;2022-09-09T05:03:50;16.50;99.90
37974;DHT22;23796;51.458;7.000;2022-09-09T05:06:17;16.60;99.90
37974;DHT22;23796;51.458;7.000;2022-09-09T05:08:44;16.50;99.90
37974;DHT22;23796;51.458;7.000;2022-09-09T05:11:18;16.60;99.90
37974;DHT22;23796;51.458;7.000;2022-09-09T05:13:44;16.60;99.90
37974;DHT22;23796;51.458;7.000;2022-09-09T05:16:14;16.60;99.90
37974;DHT22;23796;51.458;7.000;2022-09-09T05:18:40;16.60;99.90
37974;DHT22;23796;51.458;7.000;2022-09-09T05:21:08;16.60;99.90
37974;DHT22;23796;51.458;7.000;2022-09-09T05:23:36;16.60;99.90
37974;DHT22;23796;51.458;7.000;2022-09-09T05:26:02;16.70;99.90
37974;DHT22;23796;51.458;7.000;2022-09-09T05:28:28;16.70;99.90
37974;DHT22;23796;51.458;7.000;2022-09-09T05:30:59;16.70;99.90
37974;DHT22;23796;51.458;7.000;2022-09-09T05:33:26;16.70;99.90
37974;DHT22;23796;51.458;7.000;2022-09-09T05:35:59;16.80;99.90
37974;DHT22;23796;51.458;7.000;2022-09-09T05:38:32;16.80;99.90
37974;DHT22;23796;51.458;7.000;2022-09-09T05:41:02;16.90;99.90
37974;DHT22;23796;51.458;7.000;2022-09-09T05:43:30;16.90;99.90
37974;DHT22;23796;51.458;7.000;2022-09-09T05:46:14;17.00;99.90
37974;DHT22;23796;51.458;7.000;2022-09-09T05:48:44;17.00;99.90
37974;DHT22;23796;51.458;7.000;2022-09-09T05:51:19;17.00;99.90
37974;DHT22;23796;51.458;7.000;2022-09-09T05:53:47;17.10;99.90
37974;DHT22;23796;51.458;7.000;2022-09-09T05:56:15;17.10;99.90
37974;DHT22;23796;51.458;7.000;2022-09-09T05:58:45;17.10;99.90
37974;DHT22;23796;51.458;7.000;2022-09-09T06:01:17;17.10;99.90
37974;DHT22;23796;51.458;7.000;2022-09-09T06:03:44;17.10;99.90
37974;DHT22;23796;51.458;7.000;2022-09-09T06:06:15;17.10;99.90
37974;DHT22;23796;51.458;7.000;2022-09-09T06:08:43;17.10;99.90
37974;DHT22;23796;51.458;7.000;2022-09-09T06:11:15;17.20;99.90
37974;DHT22;23796;51.458;7.000;2022-09-09T06:13:45;17.20;99.90
37974;DHT22;23796;51.458;7.000;2022-09-09T06:16:20;17.20;99.90
37974;DHT22;23796;51.458;7.000;2022-09-09T06:18:50;17.20;99.90
37974;DHT22;23796;51.458;7.000;2022-09-09T06:21:23;17.20;99.90
37974;DHT22;23796;51.458;7.000;2022-09-09T06:23:49;17.20;99.90
37974;DHT22;23796;51.458;7.000;2022-09-09T06:26:22;17.30;99.90
37974;DHT22;23796;51.458;7.000;2022-09-09T06:28:52;17.40;99.90
37974;DHT22;23796;51.458;7.000;2022-09-09T06:31:20;17.50;99.90
37974;DHT22;23796;51.458;7.000;2022-09-09T06:33:53;17.50;99.90
37974;DHT22;23796;51.458;7.000;2022-09-09T06:36:28;17.60;99.90
37974;DHT22;23796;51.458;7.000;2022-09-09T06:38:54;17.70;99.90
37974;DHT22;23796;51.458;7.000;2022-09-09T06:41:21;17.80;99.90
37974;DHT22;23796;51.458;7.000;2022-09-09T06:43:53;17.70;99.90
37974;DHT22;23796;51.458;7.000;2022-09-09T06:46:22;17.70;99.90
37974;DHT22;23796;51.458;7.000;2022-09-09T06:48:51;17.70;99.90
37974;DHT22;23796;51.458;7.000;2022-09-09T06:51:18;17.70;99.90
37974;DHT22;23796;51.458;7.000;2022-09-09T06:53:51;17.80;99.90
37974;DHT22;23796;51.458;7.000;2022-09-09T06:56:21;18.00;99.90
37974;DHT22;23796;51.458;7.000;2022-09-09T06:58:52;18.10;99.90
37974;DHT22;23796;51.458;7.000;2022-09-09T07:01:26;18.20;99.90
37974;DHT22;23796;51.458;7.000;2022-09-09T07:03:56;18.20;99.90
37974;DHT22;23796;51.458;7.000;2022-09-09T07:06:27;18.20;99.90
37974;DHT22;23796;51.458;7.000;2022-09-09T07:08:57;18.20;99.90
37974;DHT22;23796;51.458;7.000;2022-09-09T07:11:33;18.20;99.90
37974;DHT22;23796;51.458;7.000;2022-09-09T07:14:01;18.20;99.90
37974;DHT22;23796;51.458;7.000;2022-09-09T07:16:29;18.20;99.90
37974;DHT22;23796;51.458;7.000;2022-09-09T07:18:58;18.20;99.90
37974;DHT22;23796;51.458;7.000;2022-09-09T07:21:26;18.20;99.90
37974;DHT22;23796;51.458;7.000;2022-09-09T07:23:52;18.20;99.90
37974;DHT22;23796;51.458;7.000;2022-09-09T07:26:27;18.30;99.90
37974;DHT22;23796;51.458;7.000;2022-09-09T07:28:58;18.30;99.90
37974;DHT22;23796;51.458;7.000;2022-09-09T07:31:26;18.30;99.90
37974;DHT22;23796;51.458;7.000;2022-09-09T07:33:52;18.20;99.90
37974;DHT22;23796;51.458;7.000;2022-09-09T07:36:18;18.30;99.90
37974;DHT22;23796;51.458;7.000;2022-09-09T07:38:54;18.20;99.90
37974;DHT22;23796;51.458;7.000;2022-09-09T07:41:41;18.30;99.90
37974;DHT22;23796;51.458;7.000;2022-09-09T07:44:14;18.30;99.90
37974;DHT22;23796;51.458;7.000;2022-09-09T07:46:40;18.50;99.90
37974;DHT22;23796;51.458;7.000;2022-09-09T07:49:08;18.50;99.90
37974;DHT22;23796;51.458;7.000;2022-09-09T07:51:38;18.50;99.90
37974;DHT22;23796;51.458;7.000;2022-09-09T07:54:07;18.50;99.90
37974;DHT22;23796;51.458;7.000;2022-09-09T07:56:35;18.50;99.90
37974;DHT22;23796;51.458;7.000;2022-09-09T07:59:03;18.50;99.90
37974;DHT22;23796;51.458;7.000;2022-09-09T08:01:38;18.60;99.90
37974;DHT22;23796;51.458;7.000;2022-09-09T08:04:15;18.80;99.90
37974;DHT22;23796;51.458;7.000;2022-09-09T08:06:44;18.90;99.90
37974;DHT22;23796;51.458;7.000;2022-09-09T08:09:15;18.90;99.90
37974;DHT22;23796;51.458;7.000;2022-09-09T08:11:43;18.90;99.90
37974;DHT22;23796;51.458;7.000;2022-09-09T08:14:12;18.80;99.90
37974;DHT22;23796;51.458;7.000;2022-09-09T08:16:44;18.80;99.90
37974;DHT22;23796;51.458;7.000;2022-09-09T08:19:10;18.70;99.90
37974;DHT22;23796;51.458;7.000;2022-09-09T08:21:40;18.60;99.90
37974;DHT22;23796;51.458;7.000;2022-09-09T08:24:07;18.60;99.90
37974;DHT22;23796;51.458;7.000;2022-09-09T08:26:35;18.60;99.90
37974;DHT22;23796;51.458;7.000;2022-09-09T08:29:06;18.80;99.90
37974;DHT22;23796;51.458;7.000;2022-09-09T08:31:35;19.20;99.90
37974;DHT22;23796;51.458;7.000;2022-09-09T08:34:03;19.40;99.90
37974;DHT22;23796;51.458;7.000;2022-09-09T08:36:39;19.80;99.90
37974;DHT22;23796;51.458;7.000;2022-09-09T08:39:06;20.10;99.90
37974;DHT22;23796;51.458;7.000;2022-09-09T08:58:24;20.00;99.90
37974;DHT22;23796;51.458;7.000;2022-09-09T09:09:01;19.90;99.90
37974;DHT22;23796;51.458;7.000;2022-09-09T09:11:44;19.90;99.90
37974;DHT22;23796;51.458;7.000;2022-09-09T09:14:22;19.90;99.90
37974;DHT22;23796;51.458;7.000;2022-09-09T09:17:03;19.90;99.90
37974;DHT22;23796;51.458;7.000;2022-09-09T09:19:32;20.10;99.90
37974;DHT22;23796;51.458;7.000;2022-09-09T09:27:39;20.60;99.90
37974;DHT22;23796;51.458;7.000;2022-09-09T09:30:17;20.80;99.90
37974;DHT22;23796;51.458;7.000;2022-09-09T09:32:53;20.80;99.90
37974;DHT22;23796;51.458;7.000;2022-09-09T09:35:19;20.90;99.90
37974;DHT22;23796;51.458;7.000;2022-09-09T09:37:47;21.00;99.90
37974;DHT22;23796;51.458;7.000;2022-09-09T09:40:23;21.30;99.90
37974;DHT22;23796;51.458;7.000;2022-09-09T09:42:58;21.60;99.90
37974;DHT22;23796;51.458;7.000;2022-09-09T09:45:46;21.70;99.90
37974;DHT22;23796;51.458;7.000;2022-09-09T09:48:17;21.80;99.90
37974;DHT22;23796;51.458;7.000;2022-09-09T09:53:30;21.90;99.90
37974;DHT22;23796;51.458;7.000;2022-09-09T09:56:16;21.90;99.90
37974;DHT22;23796;51.458;7.000;2022-09-09T10:01:32;21.80;99.90
37974;DHT22;23796;51.458;7.000;2022-09-09T10:04:17;21.70;99.90
37974;DHT22;23796;51.458;7.000;2022-09-09T10:06:46;21.40;99.90
37974;DHT22;23796;51.458;7.000;2022-09-09T10:12:20;21.10;99.90
37974;DHT22;23796;51.458;7.000;2022-09-09T10:23:46;21.40;99.90
37974;DHT22;23796;51.458;7.000;2022-09-09T10:29:10;21.20;99.90
37974;DHT22;23796;51.458;7.000;2022-09-09T10:37:25;21.50;99.90
37974;DHT22;23796;51.458;7.000;2022-09-09T10:40:05;21.80;99.90
37974;DHT22;23796;51.458;7.000;2022-09-09T10:42:37;22.00;99.90
37974;DHT22;23796;51.458;7.000;2022-09-09T10:48:00;21.90;99.90
37974;DHT22;23796;51.458;7.000;2022-09-09T10:53:13;22.40;99.90
37974;DHT22;23796;51.458;7.000;2022-09-09T10:55:51;22.70;99.90
37974;DHT22;23796;51.458;7.000;2022-09-09T11:00:50;22.80;99.90
37974;DHT22;23796;51.458;7.000;2022-09-09T11:03:28;22.70;99.90
37974;DHT22;23796;51.458;7.000;2022-09-09T11:06:05;22.60;99.90
37974;DHT22;23796;51.458;7.000;2022-09-09T11:08:35;22.70;99.90
37974;DHT22;23796;51.458;7.000;2022-09-09T11:11:17;22.80;99.90
37974;DHT22;23796;51.458;7.000;2022-09-09T11:14:05;22.70;99.90
37974;DHT22;23796;51.458;7.000;2022-09-09T11:16:42;22.20;99.90
37974;DHT22;23796;51.458;7.000;2022-09-09T11:21:48;21.90;99.90
37974;DHT22;23796;51.458;7.000;2022-09-09T11:24:21;21.70;99.90
37974;DHT22;23796;51.458;7.000;2022-09-09T11:27:15;21.70;99.90
37974;DHT22;23796;51.458;7.000;2022-09-09T11:35:56;23.00;99.90
37974;DHT22;23796;51.458;7.000;2022-09-09T11:38:28;23.00;99.90
37974;DHT22;23796;51.458;7.000;2022-09-09T11:41:01;22.80;99.90
37974;DHT22;23796;51.458;7.000;2022-09-09T11:46:00;22.50;99.90
37974;DHT22;23796;51.458;7.000;2022-09-09T11:48:43;22.40;99.90
37974;DHT22;23796;51.458;7.000;2022-09-09T11:53:55;22.20;99.90
37974;DHT22;23796;51.458;7.000;2022-09-09T11:59:31;21.90;99.90
37974;DHT22;23796;51.458;7.000;2022-09-09T12:07:37;21.80;99.90
37974;DHT22;23796;51.458;7.000;2022-09-09T12:10:23;22.00;99.90
37974;DHT22;23796;51.458;7.000;2022-09-09T12:12:53;22.20;99.90
37974;DHT22;23796;51.458;7.000;2022-09-09T12:15:31;22.40;99.90
37974;DHT22;23796;51.458;7.000;2022-09-09T12:17:58;22.60;99.90
37974;DHT22;23796;51.458;7.000;2022-09-09T12:20:32;22.70;99.90
37974;DHT22;23796;51.458;7.000;2022-09-09T12:23:32;22.80;99.90
37974;DHT22;23796;51.458;7.000;2022-09-09T12:31:25;22.50;99.90
37974;DHT22;23796;51.458;7.000;2022-09-09T12:33:54;22.20;99.90
37974;DHT22;23796;51.458;7.000;2022-09-09T12:36:27;22.10;99.90
37974;DHT22;23796;51.458;7.000;2022-09-09T12:38:54;21.90;99.90
37974;DHT22;23796;51.458;7.000;2022-09-09T12:41:27;21.90;99.90
37974;DHT22;23796;51.458;7.000;2022-09-09T12:44:08;21.90;99.90
37974;DHT22;23796;51.458;7.000;2022-09-09T12:46:42;22.40;99.90
37974;DHT22;23796;51.458;7.000;2022-09-09T12:52:03;22.60;99.90
37974;DHT22;23796;51.458;7.000;2022-09-09T12:54:34;22.20;99.90
37974;DHT22;23796;51.458;7.000;2022-09-09T12:57:00;22.10;99.90
37974;DHT22;23796;51.458;7.000;2022-09-09T12:59:37;22.00;99.90
37974;DHT22;23796;51.458;7.000;2022-09-09T13:02:16;21.90;99.90
37974;DHT22;23796;51.458;7.000;2022-09-09T13:04:43;21.80;99.90
37974;DHT22;23796;51.458;7.000;2022-09-09T13:07:11;21.70;99.90
37974;DHT22;23796;51.458;7.000;2022-09-09T13:09:37;21.60;99.90
37974;DHT22;23796;51.458;7.000;2022-09-09T13:12:04;21.50;99.90
37974;DHT22;23796;51.458;7.000;2022-09-09T13:14:35;21.40;99.90
37974;DHT22;23796;51.458;7.000;2022-09-09T13:17:06;20.80;99.90
37974;DHT22;23796;51.458;7.000;2022-09-09T13:19:36;19.90;99.90
37974;DHT22;23796;51.458;7.000;2022-09-09T13:22:30;19.40;99.90
37974;DHT22;23796;51.458;7.000;2022-09-09T13:28:36;19.90;99.90
37974;DHT22;23796;51.458;7.000;2022-09-09T13:30:39;20.10;99.90
37974;DHT22;23796;51.458;7.000;2022-09-09T13:35:36;20.20;99.90
37974;DHT22;23796;51.458;7.000;2022-09-09T13:38:14;20.20;99.90
37974;DHT22;23796;51.458;7.000;2022-09-09T13:41:18;20.20;99.90
37974;DHT22;23796;51.458;7.000;2022-09-09T13:43:47;20.20;99.90
37974;DHT22;23796;51.458;7.000;2022-09-09T13:46:36;20.50;99.90
37974;DHT22;23796;51.458;7.000;2022-09-09T13:52:02;21.30;99.90
37974;DHT22;23796;51.458;7.000;2022-09-09T13:54:31;21.50;99.90
37974;DHT22;23796;51.458;7.000;2022-09-09T13:56:56;21.50;99.90
37974;DHT22;23796;51.458;7.000;2022-09-09T13:59:22;21.70;99.90
37974;DHT22;23796;51.458;7.000;2022-09-09T14:01:52;21.80;99.90
37974;DHT22;23796;51.458;7.000;2022-09-09T14:04:18;22.00;99.90
37974;DHT22;23796;51.458;7.000;2022-09-09T14:06:47;22.00;99.90
37974;DHT22;23796;51.458;7.000;2022-09-09T14:09:15;22.00;99.90
37974;DHT22;23796;51.458;7.000;2022-09-09T14:11:41;22.00;99.90
37974;DHT22;23796;51.458;7.000;2022-09-09T14:14:07;21.90;99.90
37974;DHT22;23796;51.458;7.000;2022-09-09T14:16:34;21.80;99.90
37974;DHT22;23796;51.458;7.000;2022-09-09T14:19:00;21.80;99.90
37974;DHT22;23796;51.458;7.000;2022-09-09T14:21:27;21.90;99.90
37974;DHT22;23796;51.458;7.000;2022-09-09T14:23:53;22.00;99.90
37974;DHT22;23796;51.458;7.000;2022-09-09T14:26:23;22.00;99.90
37974;DHT22;23796;51.458;7.000;2022-09-09T14:28:49;22.00;99.90
37974;DHT22;23796;51.458;7.000;2022-09-09T14:31:15;22.00;99.90
37974;DHT22;23796;51.458;7.000;2022-09-09T14:33:43;21.70;99.90
37974;DHT22;23796;51.458;7.000;2022-09-09T14:36:09;21.70;99.90
37974;DHT22;23796;51.458;7.000;2022-09-09T14:38:36;21.90;99.90
37974;DHT22;23796;51.458;7.000;2022-09-09T14:41:15;21.90;99.90
37974;DHT22;23796;51.458;7.000;2022-09-09T14:43:48;21.90;99.90
37974;DHT22;23796;51.458;7.000;2022-09-09T14:46:18;21.80;99.90
37974;DHT22;23796;51.458;7.000;2022-09-09T14:48:44;22.00;99.90
37974;DHT22;23796;51.458;7.000;2022-09-09T14:51:16;21.90;99.90
37974;DHT22;23796;51.458;7.000;2022-09-09T14:53:43;21.60;99.90
37974;DHT22;23796;51.458;7.000;2022-09-09T14:56:20;21.40;99.90
37974;DHT22;23796;51.458;7.000;2022-09-09T14:58:47;21.10;99.90
37974;DHT22;23796;51.458;7.000;2022-09-09T15:01:16;20.80;99.90
37974;DHT22;23796;51.458;7.000;2022-09-09T15:03:49;20.20;99.90
37974;DHT22;23796;51.458;7.000;2022-09-09T15:06:19;19.90;99.90
37974;DHT22;23796;51.458;7.000;2022-09-09T15:08:49;19.60;99.90
37974;DHT22;23796;51.458;7.000;2022-09-09T15:11:15;19.30;99.90
37974;DHT22;23796;51.458;7.000;2022-09-09T15:13:42;19.20;99.90
37974;DHT22;23796;51.458;7.000;2022-09-09T15:16:14;19.20;99.90
37974;DHT22;23796;51.458;7.000;2022-09-09T15:18:43;19.00;99.90
37974;DHT22;23796;51.458;7.000;2022-09-09T15:21:18;18.90;99.90
37974;DHT22;23796;51.458;7.000;2022-09-09T15:23:45;18.90;99.90
37974;DHT22;23796;51.458;7.000;2022-09-09T15:26:11;18.90;99.90
37974;DHT22;23796;51.458;7.000;2022-09-09T15:28:40;19.00;99.90
37974;DHT22;23796;51.458;7.000;2022-09-09T15:31:11;19.00;99.90
37974;DHT22;23796;51.458;7.000;2022-09-09T15:33:40;19.00;99.90
37974;DHT22;23796;51.458;7.000;2022-09-09T15:36:23;19.00;99.90
37974;DHT22;23796;51.458;7.000;2022-09-09T15:38:50;18.80;99.90
37974;DHT22;23796;51.458;7.000;2022-09-09T15:41:17;18.70;99.90
37974;DHT22;23796;51.458;7.000;2022-09-09T15:43:50;18.60;99.90
37974;DHT22;23796;51.458;7.000;2022-09-09T15:46:32;18.60;99.90
37974;DHT22;23796;51.458;7.000;2022-09-09T15:51:28;18.50;99.90
37974;DHT22;23796;51.458;7.000;2022-09-09T15:53:57;18.50;99.90
37974;DHT22;23796;51.458;7.000;2022-09-09T15:56:26;18.50;99.90
37974;DHT22;23796;51.458;7.000;2022-09-09T15:58:53;18.60;99.90
37974;DHT22;23796;51.458;7.000;2022-09-09T16:01:23;18.50;99.90
37974;DHT22;23796;51.458;7.000;2022-09-09T16:03:49;18.50;99.90
37974;DHT22;23796;51.458;7.000;2022-09-09T16:06:21;18.50;99.90
37974;DHT22;23796;51.458;7.000;2022-09-09T16:08:52;18.70;99.90
37974;DHT22;23796;51.458;7.000;2022-09-09T16:11:33;18.90;99.90
37974;DHT22;23796;51.458;7.000;2022-09-09T16:13:59;19.00;99.90
37974;DHT22;23796;51.458;7.000;2022-09-09T16:16:28;19.20;99.90
37974;DHT22;23796;51.458;7.000;2022-09-09T16:19:00;19.30;99.90
37974;DHT22;23796;51.458;7.000;2022-09-09T16:21:42;19.30;99.90
37974;DHT22;23796;51.458;7.000;2022-09-09T16:24:10;19.20;99.90
37974;DHT22;23796;51.458;7.000;2022-09-09T16:26:37;19.10;99.90
37974;DHT22;23796;51.458;7.000;2022-09-09T16:29:04;19.10;99.90
37974;DHT22;23796;51.458;7.000;2022-09-09T16:31:30;19.10;99.90
37974;DHT22;23796;51.458;7.000;2022-09-09T16:33:57;19.10;99.90
37974;DHT22;23796;51.458;7.000;2022-09-09T16:36:29;19.10;99.90
37974;DHT22;23796;51.458;7.000;2022-09-09T16:39:01;19.20;99.90
37974;DHT22;23796;51.458;7.000;2022-09-09T16:41:28;19.20;99.90
37974;DHT22;23796;51.458;7.000;2022-09-09T16:43:55;19.10;99.90
37974;DHT22;23796;51.458;7.000;2022-09-09T16:46:26;19.10;99.90
37974;DHT22;23796;51.458;7.000;2022-09-09T16:48:53;19.00;99.90
37974;DHT22;23796;51.458;7.000;2022-09-09T16:51:27;18.90;99.90
37974;DHT22;23796;51.458;7.000;2022-09-09T16:53:54;18.90;99.90
37974;DHT22;23796;51.458;7.000;2022-09-09T16:56:24;18.80;99.90
37974;DHT22;23796;51.458;7.000;2022-09-09T16:59:11;18.70;99.90
37974;DHT22;23796;51.458;7.000;2022-09-09T17:01:41;18.70;99.90
37974;DHT22;23796;51.458;7.000;2022-09-09T17:04:16;18.60;99.90
37974;DHT22;23796;51.458;7.000;2022-09-09T17:06:50;18.60;99.90
37974;DHT22;23796;51.458;7.000;2022-09-09T17:09:19;18.50;99.90
37974;DHT22;23796;51.458;7.000;2022-09-09T17:11:45;18.50;99.90
37974;DHT22;23796;51.458;7.000;2022-09-09T17:14:17;18.40;99.90
37974;DHT22;23796;51.458;7.000;2022-09-09T17:16:47;18.50;99.90
37974;DHT22;23796;51.458;7.000;2022-09-09T17:19:13;18.40;99.90
37974;DHT22;23796;51.458;7.000;2022-09-09T17:21:39;18.40;99.90
37974;DHT22;23796;51.458;7.000;2022-09-09T17:24:05;18.40;99.90
37974;DHT22;23796;51.458;7.000;2022-09-09T17:26:31;18.30;99.90
37974;DHT22;23796;51.458;7.000;2022-09-09T17:28:59;18.20;99.90
37974;DHT22;23796;51.458;7.000;2022-09-09T17:31:29;18.10;99.90
37974;DHT22;23796;51.458;7.000;2022-09-09T17:33:55;18.00;99.90
37974;DHT22;23796;51.458;7.000;2022-09-09T17:36:32;17.90;99.90
37974;DHT22;23796;51.458;7.000;2022-09-09T17:39:02;17.90;99.90
37974;DHT22;23796;51.458;7.000;2022-09-09T17:41:34;17.80;99.90
37974;DHT22;23796;51.458;7.000;2022-09-09T17:44:02;17.80;99.90
37974;DHT22;23796;51.458;7.000;2022-09-09T17:46:37;17.80;99.90
37974;DHT22;23796;51.458;7.000;2022-09-09T17:49:11;17.70;99.90
37974;DHT22;23796;51.458;7.000;2022-09-09T17:51:37;17.70;99.90
37974;DHT22;23796;51.458;7.000;2022-09-09T17:54:08;17.70;99.90
37974;DHT22;23796;51.458;7.000;2022-09-09T17:56:34;17.80;99.90
37974;DHT22;23796;51.458;7.000;2022-09-09T17:59:03;17.70;99.90
37974;DHT22;23796;51.458;7.000;2022-09-09T18:01:33;17.70;99.90
37974;DHT22;23796;51.458;7.000;2022-09-09T18:04:01;17.70;99.90
37974;DHT22;23796;51.458;7.000;2022-09-09T18:06:31;17.70;99.90
37974;DHT22;23796;51.458;7.000;2022-09-09T18:09:04;17.70;99.90
37974;DHT22;23796;51.458;7.000;2022-09-09T18:11:35;17.70;99.90
37974;DHT22;23796;51.458;7.000;2022-09-09T18:14:03;17.70;99.90
37974;DHT22;23796;51.458;7.000;2022-09-09T18:16:32;17.70;99.90
37974;DHT22;23796;51.458;7.000;2022-09-09T18:19:04;17.70;99.90
37974;DHT22;23796;51.458;7.000;2022-09-09T18:21:32;17.70;99.90
37974;DHT22;23796;51.458;7.000;2022-09-09T18:24:03;17.70;99.90
37974;DHT22;23796;51.458;7.000;2022-09-09T18:26:29;17.70;99.90
37974;DHT22;23796;51.458;7.000;2022-09-09T18:29:04;17.70;99.90
37974;DHT22;23796;51.458;7.000;2022-09-09T18:31:31;17.60;99.90
37974;DHT22;23796;51.458;7.000;2022-09-09T18:34:01;17.60;99.90
37974;DHT22;23796;51.458;7.000;2022-09-09T18:36:37;17.60;99.90
37974;DHT22;23796;51.458;7.000;2022-09-09T18:39:08;17.50;99.90
37974;DHT22;23796;51.458;7.000;2022-09-09T18:41:36;17.50;99.90